Time;durP1;ratioP1;P1;durP2;ratioP2;P2;SDS_P1;SDS_P2;PMS_P1;PMS_P2;Temp;Humidity;BMP_temperature;BMP_pressure;BME280_temperature;BME280_humidity;BME280_pressure;Samples;Min_cycle;Max_cycle;Signal;HPM_P1;HPM_P2
2021/03/22 00:00:31;;;;;;;;;;;;;;;17.84;32.13;100418.78;4418565;32;19969;-51
2021/03/22 00:02:57;;;;;;;;;;;;;;;17.81;32.24;100413.47;4418134;32;19946;-53
2021/03/22 00:05:23;;;;;;;;;;;;;;;17.74;32.27;100416.81;4417829;32;20036;-49
2021/03/22 00:07:49;;;;;;;;;;;;;;;17.78;32.23;100410.75;4418059;32;19946;-51
2021/03/22 00:10:15;;;;;;;;;;;;;;;17.79;32.21;100408.19;4417984;32;19974;-48
2021/03/22 00:12:40;;;;;;;;;;;;;;;17.81;32.12;100408.19;4418386;32;19950;-52
2021/03/22 00:15:06;;;;;;;;;;;;;;;17.78;32.17;100408.12;4417972;32;19972;-53
2021/03/22 00:17:32;;;;;;;;;;;;;;;17.81;32.11;100405.56;4416789;32;20451;-49
2021/03/22 00:19:58;;;;;;;;;;;;;;;17.80;32.09;100406.41;4418724;32;19950;-53
2021/03/22 00:22:24;;;;;;;;;;;;;;;17.80;32.09;100406.41;4417691;32;19962;-49
2021/03/22 00:24:50;;;;;;;;;;;;;;;17.74;32.20;100406.28;4418109;32;20290;-49
2021/03/22 00:27:16;;;;;;;;;;;;;;;17.76;32.15;100401.94;4416671;32;19950;-49
2021/03/22 00:29:42;;;;;;;;;;;;;;;17.74;32.19;100416.81;4418230;32;20022;-50
2021/03/22 00:32:07;;;;;;;;;;;;;;;17.67;32.30;100406.13;4416879;32;19988;-52
2021/03/22 00:34:33;;;;;;;;;;;;;;;17.64;32.33;100406.06;4418208;32;19950;-49
2021/03/22 00:36:59;;;;;;;;;;;;;;;17.69;32.25;100404.41;4416778;32;19978;-51
2021/03/22 00:39:25;;;;;;;;;;;;;;;17.73;32.17;100399.25;4417744;32;20324;-48
2021/03/22 00:41:51;;;;;;;;;;;;;;;17.74;32.16;100401.03;4417670;32;20005;-51
2021/03/22 00:44:17;;;;;;;;;;;;;;;17.72;32.14;100397.44;4417577;32;19962;-53
2021/03/22 00:46:43;;;;;;;;;;;;;;;17.66;32.24;100393.81;4417340;32;20593;-51
2021/03/22 00:49:09;;;;;;;;;;;;;;;17.68;32.22;100392.09;4416802;32;20421;-50
2021/03/22 00:51:34;;;;;;;;;;;;;;;17.69;32.18;100393.88;4417930;32;20002;-51
2021/03/22 00:54:00;;;;;;;;;;;;;;;17.66;32.24;100385.03;4417410;32;20368;-50
2021/03/22 00:56:26;;;;;;;;;;;;;;;17.64;32.25;100395.53;4417175;32;19954;-51
2021/03/22 00:58:52;;;;;;;;;;;;;;;17.66;32.23;100388.53;4416422;32;19947;-53
2021/03/22 01:01:18;;;;;;;;;;;;;;;17.72;32.10;100397.44;4417417;32;19950;-52
2021/03/22 01:03:44;;;;;;;;;;;;;;;17.72;32.10;100392.16;4417536;32;19980;-50
2021/03/22 01:06:10;;;;;;;;;;;;;;;17.65;32.17;100392.03;4417104;32;19964;-52
2021/03/22 01:08:35;;;;;;;;;;;;;;;17.69;32.17;100393.00;4417302;32;19995;-52
2021/03/22 01:11:01;;;;;;;;;;;;;;;17.62;32.28;100397.25;4417366;32;20355;-53
2021/03/22 01:13:27;;;;;;;;;;;;;;;17.63;32.22;100396.37;4417088;32;19973;-50
2021/03/22 01:15:53;;;;;;;;;;;;;;;17.63;32.23;100391.12;4417089;32;19954;-52
2021/03/22 01:18:19;;;;;;;;;;;;;;;17.55;32.30;100390.03;4416517;32;20290;-53
2021/03/22 01:20:45;;;;;;;;;;;;;;;17.54;32.36;100393.53;4416775;32;19953;-51
2021/03/22 01:23:11;;;;;;;;;;;;;;;17.59;32.27;100385.72;4417046;32;19969;-52
2021/03/22 01:25:37;;;;;;;;;;;;;;;17.54;32.36;100391.78;4417113;32;19979;-51
2021/03/22 01:28:02;;;;;;;;;;;;;;;17.53;32.36;100397.91;4416041;32;19982;-47
2021/03/22 01:30:31;;;;;;;;;;;;;;;17.57;32.28;100393.59;4417219;32;20305;-50
2021/03/22 01:32:59;;;;;;;;;;;;;;;17.56;32.30;100386.53;4417235;32;20028;-51
2021/03/22 01:35:25;;;;;;;;;;;;;;;17.59;32.26;100394.50;4416731;32;20267;-52
2021/03/22 01:37:51;;;;;;;;;;;;;;;17.60;32.23;100377.88;4416341;32;19954;-52
2021/03/22 01:40:17;;;;;;;;;;;;;;;17.63;32.15;100377.94;4414952;32;19954;-50
2021/03/22 01:42:42;;;;;;;;;;;;;;;17.60;32.21;100383.16;4417292;32;19950;-50
2021/03/22 01:45:08;;;;;;;;;;;;;;;17.54;32.30;100383.00;4416813;32;19950;-50
2021/03/22 01:47:34;;;;;;;;;;;;;;;17.54;32.30;100377.72;4416402;32;19958;-50
2021/03/22 01:50:00;;;;;;;;;;;;;;;17.54;32.25;100373.34;4417228;32;19946;-49
2021/03/22 01:52:26;;;;;;;;;;;;;;;17.58;32.21;100374.28;4416744;32;20665;-50
2021/03/22 01:54:52;;;;;;;;;;;;;;;17.59;32.16;100370.81;4416722;32;19982;-50
2021/03/22 01:57:18;;;;;;;;;;;;;;;17.60;32.16;100369.97;4416050;32;19954;-50
2021/03/22 01:59:44;;;;;;;;;;;;;;;17.54;32.27;100375.09;4416158;32;19962;-51
2021/03/22 02:02:09;;;;;;;;;;;;;;;17.59;32.19;100375.19;4416458;32;19965;-50
2021/03/22 02:04:35;;;;;;;;;;;;;;;17.59;32.18;100370.81;4416566;32;20361;-50
2021/03/22 02:07:01;;;;;;;;;;;;;;;17.54;32.23;100364.56;4416915;32;20024;-52
2021/03/22 02:09:27;;;;;;;;;;;;;;;17.50;32.31;100370.62;4416368;32;19992;-54
2021/03/22 02:11:53;;;;;;;;;;;;;;;17.53;32.25;100368.03;4415922;32;20499;-50
2021/03/22 02:14:19;;;;;;;;;;;;;;;17.51;32.29;100361.84;4416124;32;19950;-51
2021/03/22 02:16:45;;;;;;;;;;;;;;;17.58;32.18;100362.87;4416584;32;19954;-49
2021/03/22 02:19:11;;;;;;;;;;;;;;;17.51;32.25;100367.13;4415183;32;20335;-52
2021/03/22 02:21:36;;;;;;;;;;;;;;;17.49;32.32;100363.56;4417150;32;19954;-51
2021/03/22 02:24:02;;;;;;;;;;;;;;;17.52;32.25;100359.25;4417288;32;19947;-48
2021/03/22 02:26:28;;;;;;;;;;;;;;;17.54;32.18;100356.66;4416425;32;20555;-51
2021/03/22 02:28:54;;;;;;;;;;;;;;;17.53;32.19;100365.41;4416004;32;19970;-48
2021/03/22 02:31:20;;;;;;;;;;;;;;;17.51;32.25;100372.37;4416303;32;19966;-51
2021/03/22 02:33:46;;;;;;;;;;;;;;;17.56;32.15;100373.38;4415709;32;19953;-49
2021/03/22 02:36:12;;;;;;;;;;;;;;;17.52;32.23;100371.53;4416193;32;19973;-52
2021/03/22 02:38:38;;;;;;;;;;;;;;;17.46;32.30;100368.72;4416800;32;19988;-51
2021/03/22 02:41:04;;;;;;;;;;;;;;;17.40;32.40;100375.66;4416002;32;19954;-49
2021/03/22 02:43:30;;;;;;;;;;;;;;;17.49;32.26;100379.37;4416190;32;19954;-50
2021/03/22 02:45:56;;;;;;;;;;;;;;;17.54;32.17;100369.81;4416997;32;19958;-51
2021/03/22 02:48:22;;;;;;;;;;;;;;;17.50;32.26;100373.25;4415323;32;19984;-50
2021/03/22 02:50:47;;;;;;;;;;;;;;;17.47;32.34;100374.06;4416749;32;19984;-51
2021/03/22 02:53:13;;;;;;;;;;;;;;;17.40;32.39;100373.00;4416536;32;19973;-51
2021/03/22 02:55:39;;;;;;;;;;;;;;;17.40;32.39;100373.00;4416582;32;19973;-53
2021/03/22 02:58:05;;;;;;;;;;;;;;;17.45;32.35;100377.50;4415432;32;20660;-50
2021/03/22 03:00:31;;;;;;;;;;;;;;;17.46;32.28;100374.91;4416869;32;20011;-51
2021/03/22 03:02:57;;;;;;;;;;;;;;;17.44;32.30;100381.88;4415825;32;19981;-53
2021/03/22 03:05:23;;;;;;;;;;;;;;;17.41;32.36;100393.22;4415801;32;20053;-49
2021/03/22 03:07:49;;;;;;;;;;;;;;;17.42;32.32;100389.72;4416652;32;19974;-51
2021/03/22 03:10:14;;;;;;;;;;;;;;;17.48;32.27;100388.12;4415635;32;19987;-50
2021/03/22 03:12:40;;;;;;;;;;;;;;;17.48;32.24;100390.75;4419554;32;19961;-54
2021/03/22 03:15:06;;;;;;;;;;;;;;;17.47;32.23;100384.59;4419519;32;20804;-53
2021/03/22 03:17:32;;;;;;;;;;;;;;;17.47;32.24;100386.31;4418206;32;19953;-51
2021/03/22 03:19:58;;;;;;;;;;;;;;;17.45;32.32;100390.66;4418902;32;19955;-52
2021/03/22 03:22:24;;;;;;;;;;;;;;;17.40;32.33;100394.06;4419246;32;19977;-50
2021/03/22 03:24:50;;;;;;;;;;;;;;;17.39;32.37;100391.38;4419288;32;19946;-52
2021/03/22 03:27:16;;;;;;;;;;;;;;;17.41;32.32;100398.47;4417864;32;19958;-49
2021/03/22 03:29:41;;;;;;;;;;;;;;;17.33;32.47;100405.28;4419267;32;20051;-50
2021/03/22 03:32:07;;;;;;;;;;;;;;;17.38;32.40;100401.03;4418022;32;19965;-51
2021/03/22 03:34:33;;;;;;;;;;;;;;;17.35;32.42;100405.34;4419404;32;20443;-51
2021/03/22 03:36:59;;;;;;;;;;;;;;;17.38;32.38;100401.03;4418938;32;19969;-51
2021/03/22 03:39:25;;;;;;;;;;;;;;;17.36;32.42;100405.38;4418603;32;19953;-49
2021/03/22 03:41:51;;;;;;;;;;;;;;;17.32;32.47;100403.50;4418758;32;19958;-48
2021/03/22 03:44:17;;;;;;;;;;;;;;;17.39;32.35;100394.94;4418151;32;19938;-49
2021/03/22 03:46:43;;;;;;;;;;;;;;;17.37;32.39;100401.91;4403085;32;19950;-49
2021/03/22 03:49:09;;;;;;;;;;;;;;;17.34;32.42;100390.41;4402953;32;19962;-48
2021/03/22 03:51:34;;;;;;;;;;;;;;;17.37;32.37;100401.91;4417481;32;20384;-49
2021/03/22 03:54:00;;;;;;;;;;;;;;;17.35;32.40;100393.06;4418672;32;19960;-52
2021/03/22 03:56:26;;;;;;;;;;;;;;;17.36;32.39;100400.13;4418357;32;19991;-49
2021/03/22 03:58:52;;;;;;;;;;;;;;;17.39;32.37;100400.19;4417764;32;20019;-52
2021/03/22 04:01:18;;;;;;;;;;;;;;;17.35;32.40;100398.34;4417533;32;20345;-51
2021/03/22 04:03:44;;;;;;;;;;;;;;;17.41;32.28;100398.47;4418234;32;19954;-53
2021/03/22 04:06:11;;;;;;;;;;;;;;;17.34;32.43;100401.81;4418279;32;19962;-48
2021/03/22 04:08:37;;;;;;;;;;;;;;;17.37;32.34;100396.63;4418407;32;20351;-55
2021/03/22 04:11:03;;;;;;;;;;;;;;;17.35;32.35;100393.06;4407813;32;19970;-49
2021/03/22 04:13:29;;;;;;;;;;;;;;;17.37;32.34;100394.00;4403477;32;20016;-52
2021/03/22 04:15:55;;;;;;;;;;;;;;;17.28;32.51;100399.03;4410019;32;19951;-49
2021/03/22 04:18:21;;;;;;;;;;;;;;;17.28;32.50;100401.66;4416871;32;20022;-50
2021/03/22 04:20:47;;;;;;;;;;;;;;;17.31;32.45;100401.72;4418475;32;20287;-52
2021/03/22 04:23:13;;;;;;;;;;;;;;;17.32;32.44;100414.03;4417637;32;19954;-50
2021/03/22 04:25:38;;;;;;;;;;;;;;;17.31;32.45;100411.38;4418250;32;19954;-50
2021/03/22 04:28:04;;;;;;;;;;;;;;;17.34;32.41;100412.31;4417576;32;20367;-53
2021/03/22 04:30:30;;;;;;;;;;;;;;;17.34;32.41;100425.50;4417067;32;19962;-48
2021/03/22 04:32:56;;;;;;;;;;;;;;;17.27;32.53;100415.66;4417300;32;19985;-52
2021/03/22 04:35:22;;;;;;;;;;;;;;;17.34;32.43;100417.59;4417838;32;20256;-49
2021/03/22 04:37:48;;;;;;;;;;;;;;;17.35;32.40;100408.88;4418244;32;20002;-53
2021/03/22 04:40:14;;;;;;;;;;;;;;;17.32;32.44;100414.03;4417213;32;19969;-52
2021/03/22 04:42:40;;;;;;;;;;;;;;;17.35;32.38;100414.13;4418290;32;19969;-53
2021/03/22 04:45:06;;;;;;;;;;;;;;;17.33;32.41;100405.28;4417039;32;19961;-50
2021/03/22 04:47:32;;;;;;;;;;;;;;;17.31;32.45;100411.38;4415764;32;19987;-50
2021/03/22 04:49:58;;;;;;;;;;;;;;;17.32;32.44;100416.66;4418429;32;19950;-51
2021/03/22 04:52:24;;;;;;;;;;;;;;;17.36;32.34;100417.66;4417375;32;20346;-49
2021/03/22 04:54:50;;;;;;;;;;;;;;;17.33;32.35;100421.06;4418068;32;19991;-50
2021/03/22 04:57:16;;;;;;;;;;;;;;;17.31;32.46;100422.78;4417038;32;20359;-54
2021/03/22 04:59:41;;;;;;;;;;;;;;;17.35;32.34;100419.41;4417363;32;19974;-53
2021/03/22 05:02:07;;;;;;;;;;;;;;;17.37;32.32;100415.06;4416973;32;20311;-52
2021/03/22 05:04:33;;;;;;;;;;;;;;;17.28;32.48;100426.25;4418219;32;19985;-54
2021/03/22 05:06:59;;;;;;;;;;;;;;;17.21;32.61;100426.94;4416859;32;19947;-53
2021/03/22 05:09:25;;;;;;;;;;;;;;;17.25;32.58;100427.91;4417134;32;19973;-51
2021/03/22 05:11:51;;;;;;;;;;;;;;;17.26;32.53;100427.06;4417827;32;19949;-49
2021/03/22 05:14:17;;;;;;;;;;;;;;;17.30;32.49;100421.00;4416719;32;19958;-51
2021/03/22 05:16:43;;;;;;;;;;;;;;;17.31;32.41;100428.06;4416954;32;20290;-52
2021/03/22 05:19:08;;;;;;;;;;;;;;;17.25;32.57;100427.91;4416858;32;19984;-50
2021/03/22 05:21:34;;;;;;;;;;;;;;;17.27;32.54;100426.19;4416922;32;19945;-53
2021/03/22 05:24:00;;;;;;;;;;;;;;;17.28;32.51;100423.63;4417707;32;19950;-50
2021/03/22 05:26:26;;;;;;;;;;;;;;;17.32;32.46;100439.50;4416801;32;19988;-52
2021/03/22 05:28:52;;;;;;;;;;;;;;;17.28;32.50;100441.13;4416312;32;19988;-52
2021/03/22 05:31:18;;;;;;;;;;;;;;;17.24;32.60;100437.53;4417134;32;20330;-54
2021/03/22 05:33:44;;;;;;;;;;;;;;;17.26;32.54;100440.22;4415190;32;19973;-54
2021/03/22 05:36:10;;;;;;;;;;;;;;;17.30;32.49;100447.31;4416995;32;19970;-53
2021/03/22 05:38:37;;;;;;;;;;;;;;;17.28;32.49;100444.69;4416470;32;19982;-51
2021/03/22 05:41:03;;;;;;;;;;;;;;;17.31;32.48;100442.97;4417434;32;19962;-50
2021/03/22 05:43:29;;;;;;;;;;;;;;;17.28;32.51;100444.69;4416780;32;19978;-53
2021/03/22 05:45:55;;;;;;;;;;;;;;;17.26;32.56;100440.22;4417100;32;19958;-50
2021/03/22 05:48:22;;;;;;;;;;;;;;;17.22;32.63;100444.50;4416088;32;20299;-49
2021/03/22 05:50:48;;;;;;;;;;;;;;;17.26;32.60;100446.34;4417029;32;20224;-51
2021/03/22 05:53:14;;;;;;;;;;;;;;;17.26;32.60;100445.47;4416881;32;19998;-51
2021/03/22 05:55:40;;;;;;;;;;;;;;;17.25;32.64;100448.97;4413656;32;19992;-54
2021/03/22 05:58:06;;;;;;;;;;;;;;;17.25;32.62;100452.47;4415126;32;19964;-50
2021/03/22 06:00:31;;;;;;;;;;;;;;;17.24;32.62;100447.19;4416051;32;20338;-53
2021/03/22 06:02:57;;;;;;;;;;;;;;;17.28;32.55;100452.56;4415589;32;19981;-52
2021/03/22 06:05:23;;;;;;;;;;;;;;;17.24;32.66;100452.44;4416114;32;20045;-52
2021/03/22 06:07:49;;;;;;;;;;;;;;;17.19;32.73;100454.94;4415887;32;19966;-52
2021/03/22 06:10:15;;;;;;;;;;;;;;;17.21;32.67;100453.25;4415352;32;19946;-50
2021/03/22 06:12:41;;;;;;;;;;;;;;;17.18;32.74;100452.25;4415854;32;19985;-51
2021/03/22 06:15:07;;;;;;;;;;;;;;;17.17;32.78;100461.00;4415161;32;20286;-51
2021/03/22 06:17:33;;;;;;;;;;;;;;;17.20;32.74;100458.47;4414964;32;19954;-55
2021/03/22 06:19:59;;;;;;;;;;;;;;;17.14;32.88;100461.81;4415661;32;19951;-52
2021/03/22 06:22:25;;;;;;;;;;;;;;;17.14;32.89;100462.72;4415452;32;19996;-51
2021/03/22 06:24:50;;;;;;;;;;;;;;;17.20;32.80;100466.34;4415545;32;19957;-50
2021/03/22 06:27:16;;;;;;;;;;;;;;;17.25;32.74;100464.75;4414321;32;19954;-49
2021/03/22 06:29:43;;;;;;;;;;;;;;;17.28;32.70;100470.09;4415524;32;19949;-52
2021/03/22 06:32:09;;;;;;;;;;;;;;;17.34;32.61;100464.97;4416073;32;19954;-52
2021/03/22 06:34:35;;;;;;;;;;;;;;;17.33;32.64;100473.72;4417387;32;20013;-53
2021/03/22 06:37:01;;;;;;;;;;;;;;;17.29;32.71;100477.13;4411577;32;19964;-53
2021/03/22 06:39:27;;;;;;;;;;;;;;;17.32;32.70;100463.19;4412217;32;19978;-55
2021/03/22 06:41:53;;;;;;;;;;;;;;;17.33;32.71;100470.22;4400473;32;19966;-53
2021/03/22 06:44:19;;;;;;;;;;;;;;;17.26;32.78;100471.81;4396937;32;19950;-52
2021/03/22 06:46:44;;;;;;;;;;;;;;;17.26;32.83;100471.81;4412774;32;19962;-52
2021/03/22 06:49:10;;;;;;;;;;;;;;;17.28;32.78;100475.34;4417333;32;19954;-55
2021/03/22 06:51:36;;;;;;;;;;;;;;;17.31;32.76;100472.81;4418207;32;19954;-54
2021/03/22 06:54:02;;;;;;;;;;;;;;;17.24;33.06;100473.50;4418089;32;20367;-55
2021/03/22 06:56:28;;;;;;;;;;;;;;;17.21;32.94;100473.41;4417585;32;19986;-55
2021/03/22 06:58:54;;;;;;;;;;;;;;;17.17;33.01;100476.81;4417271;32;19950;-52
2021/03/22 07:01:20;;;;;;;;;;;;;;;17.14;33.07;100477.59;4417894;32;19939;-55
2021/03/22 07:03:46;;;;;;;;;;;;;;;17.09;33.38;100477.47;4417822;32;19970;-55
2021/03/22 07:06:12;;;;;;;;;;;;;;;17.07;33.38;100481.81;4417947;32;20060;-54
2021/03/22 07:08:39;;;;;;;;;;;;;;;17.13;33.33;100475.81;4415754;32;19965;-54
2021/03/22 07:11:05;;;;;;;;;;;;;;;17.11;33.42;100478.44;4418077;32;19953;-55
2021/03/22 07:13:31;;;;;;;;;;;;;;;17.13;33.33;100491.59;4418322;32;20009;-53
2021/03/22 07:15:58;;;;;;;;;;;;;;;17.20;33.26;100487.41;4416938;32;19947;-55
2021/03/22 07:18:24;;;;;;;;;;;;;;;17.20;33.28;100488.31;4415108;32;20033;-55
2021/03/22 07:20:50;;;;;;;;;;;;;;;17.19;33.34;100490.88;4418227;32;19950;-56
2021/03/22 07:23:15;;;;;;;;;;;;;;;17.22;33.32;100490.97;4417408;32;20017;-52
2021/03/22 07:25:42;;;;;;;;;;;;;;;17.25;33.28;100491.06;4417786;32;20389;-55
2021/03/22 07:28:08;;;;;;;;;;;;;;;17.33;33.12;100489.53;4416624;32;20016;-53
2021/03/22 07:30:34;;;;;;;;;;;;;;;17.20;33.45;100498.84;4415638;32;20010;-55
2021/03/22 07:33:00;;;;;;;;;;;;;;;17.02;33.75;100496.59;4416450;32;19966;-53
2021/03/22 07:35:26;;;;;;;;;;;;;;;16.94;33.95;100498.97;4415788;32;19978;-54
2021/03/22 07:37:52;;;;;;;;;;;;;;;17.00;33.86;100500.91;4415881;32;20062;-56
2021/03/22 07:40:18;;;;;;;;;;;;;;;17.10;33.66;100500.34;4416413;32;19942;-52
2021/03/22 07:42:44;;;;;;;;;;;;;;;17.30;33.37;100501.72;4417033;32;19994;-54
2021/03/22 07:45:10;;;;;;;;;;;;;;;17.22;33.55;100505.03;4415507;32;19957;-54
2021/03/22 07:47:36;;;;;;;;;;;;;;;17.21;33.57;100510.25;4415211;32;19992;-54
2021/03/22 07:50:02;;;;;;;;;;;;;;;17.22;33.67;100512.03;4416906;32;20028;-55
2021/03/22 07:52:28;;;;;;;;;;;;;;;17.16;33.79;100514.50;4416757;32;20564;-54
2021/03/22 07:54:54;;;;;;;;;;;;;;;17.29;33.56;100516.62;4417067;32;19961;-55
2021/03/22 07:57:20;;;;;;;;;;;;;;;17.31;33.43;100520.19;4415555;32;19972;-57
2021/03/22 07:59:46;;;;;;;;;;;;;;;17.29;33.63;100513.97;4418072;32;19954;-55
2021/03/22 08:02:12;;;;;;;;;;;;;;;17.38;33.43;100521.22;4417663;32;20001;-54
2021/03/22 08:04:38;;;;;;;;;;;;;;;17.31;33.56;100517.53;4418442;32;20325;-55
2021/03/22 08:07:04;;;;;;;;;;;;;;;17.35;33.44;100519.44;4416858;32;19958;-54
2021/03/22 08:09:30;;;;;;;;;;;;;;;17.33;33.45;100526.38;4416367;32;19962;-55
2021/03/22 08:11:56;;;;;;;;;;;;;;;17.40;33.35;100528.34;4418567;32;20264;-52
2021/03/22 08:14:22;;;;;;;;;;;;;;;17.36;33.42;100529.13;4417809;32;20011;-55
2021/03/22 08:16:47;;;;;;;;;;;;;;;17.44;33.33;100533.66;4418459;32;20000;-55
2021/03/22 08:19:13;;;;;;;;;;;;;;;17.35;33.47;100529.97;4418400;32;20306;-55
2021/03/22 08:21:39;;;;;;;;;;;;;;;17.35;33.48;100529.06;4417919;32;19965;-55
2021/03/22 08:24:05;;;;;;;;;;;;;;;17.36;33.48;100529.13;4416616;32;20343;-55
2021/03/22 08:26:31;;;;;;;;;;;;;;;17.38;33.45;100530.03;4418079;32;19954;-52
2021/03/22 08:28:57;;;;;;;;;;;;;;;17.36;33.51;100536.09;4417623;32;19973;-49
2021/03/22 08:31:24;;;;;;;;;;;;;;;17.37;33.51;100532.63;4417307;32;20044;-55
2021/03/22 08:33:50;;;;;;;;;;;;;;;17.45;33.40;100541.63;4416156;32;20302;-53
2021/03/22 08:36:16;;;;;;;;;;;;;;;17.40;33.49;100549.41;4408876;32;19951;-53
2021/03/22 08:38:41;;;;;;;;;;;;;;;17.44;33.45;100541.56;4400087;32;19982;-55
2021/03/22 08:41:07;;;;;;;;;;;;;;;17.42;33.45;100542.41;4402482;32;19950;-55
2021/03/22 08:43:33;;;;;;;;;;;;;;;17.47;33.41;100539.00;4400272;32;19966;-54
2021/03/22 08:45:59;;;;;;;;;;;;;;;17.50;33.37;100542.63;4402507;32;19955;-55
2021/03/22 08:48:25;;;;;;;;;;;;;;;17.57;33.27;100546.31;4398996;32;20284;-55
2021/03/22 08:50:51;;;;;;;;;;;;;;;17.57;33.26;100538.41;4399671;32;19950;-53
2021/03/22 08:53:17;;;;;;;;;;;;;;;17.47;33.43;100544.28;4408914;32;19985;-50
2021/03/22 08:55:51;;;;;;;;;;;;;;;17.53;33.37;100544.47;4416138;32;19959;-52
2021/03/22 08:58:17;;;;;;;;;;;;;;;17.59;33.27;100549.88;4415799;32;19974;-51
2021/03/22 09:00:42;;;;;;;;;;;;;;;17.42;33.52;100542.41;4415875;32;19943;-53
2021/03/22 09:03:08;;;;;;;;;;;;;;;17.55;33.38;100553.28;4416218;32;19983;-52
2021/03/22 09:05:34;;;;;;;;;;;;;;;17.68;33.14;100551.88;4415364;32;20545;-50
2021/03/22 09:08:00;;;;;;;;;;;;;;;17.68;33.17;100550.13;4416185;32;19965;-52
2021/03/22 09:10:26;;;;;;;;;;;;;;;17.66;33.25;100562.37;4415184;32;19954;-51
2021/03/22 09:12:52;;;;;;;;;;;;;;;17.67;33.24;100568.53;4416388;32;20023;-52
2021/03/22 09:15:18;;;;;;;;;;;;;;;17.70;33.17;100566.84;4416230;32;19954;-52
2021/03/22 09:17:44;;;;;;;;;;;;;;;17.72;33.19;100558.09;4415488;32;19949;-52
2021/03/22 09:20:10;;;;;;;;;;;;;;;17.69;33.27;100562.44;4415456;32;19958;-51
2021/03/22 09:22:36;;;;;;;;;;;;;;;17.66;33.33;100564.12;4417477;32;19958;-52
2021/03/22 09:25:01;;;;;;;;;;;;;;;17.72;33.23;100561.63;4416993;32;20319;-54
2021/03/22 09:27:27;;;;;;;;;;;;;;;17.71;33.32;100565.13;4415315;32;20310;-52
2021/03/22 09:29:53;;;;;;;;;;;;;;;17.75;33.25;100566.97;4414611;32;19961;-53
2021/03/22 09:32:19;;;;;;;;;;;;;;;17.79;33.22;100567.97;4411336;32;20622;-54
2021/03/22 09:34:45;;;;;;;;;;;;;;;17.77;33.27;100567.03;4415022;32;20065;-54
2021/03/22 09:37:11;;;;;;;;;;;;;;;17.87;33.06;100570.78;4413881;32;19982;-51
2021/03/22 09:39:37;;;;;;;;;;;;;;;17.89;33.04;100571.72;4413337;32;20249;-50
2021/03/22 09:42:03;;;;;;;;;;;;;;;17.78;33.27;100577.62;4416095;32;19950;-54
2021/03/22 09:44:29;;;;;;;;;;;;;;;17.69;33.42;100572.09;4416335;32;19977;-54
2021/03/22 09:46:55;;;;;;;;;;;;;;;17.83;33.26;100572.44;4413183;32;20338;-52
2021/03/22 09:49:21;;;;;;;;;;;;;;;17.87;33.14;100574.31;4415258;32;19972;-55
2021/03/22 09:51:47;;;;;;;;;;;;;;;17.86;33.20;100569.00;4415279;32;20009;-51
2021/03/22 09:54:13;;;;;;;;;;;;;;;17.76;33.41;100583.69;4412232;32;20580;-53
2021/03/22 09:56:39;;;;;;;;;;;;;;;17.77;33.37;100580.19;4416476;32;19987;-55
2021/03/22 09:59:05;;;;;;;;;;;;;;;17.90;33.19;100584.94;4415508;32;20341;-54
2021/03/22 10:01:31;;;;;;;;;;;;;;;17.93;33.12;100582.38;4415293;32;19998;-54
2021/03/22 10:04:00;;;;;;;;;;;;;;;17.96;33.04;100587.75;4416219;32;19970;-51
2021/03/22 10:06:26;;;;;;;;;;;;;;;17.91;32.98;100578.81;4415177;32;19954;-54
2021/03/22 10:08:52;;;;;;;;;;;;;;;17.92;33.07;100574.44;4413432;32;19965;-54
2021/03/22 10:11:18;;;;;;;;;;;;;;;17.93;32.99;100573.59;4414901;32;20441;-53
2021/03/22 10:13:44;;;;;;;;;;;;;;;17.91;33.10;100573.53;4414859;32;20486;-54
2021/03/22 10:16:10;;;;;;;;;;;;;;;17.88;33.13;100586.66;4415332;32;19950;-54
2021/03/22 10:18:36;;;;;;;;;;;;;;;17.85;33.16;100583.94;4414634;32;20371;-54
2021/03/22 10:21:02;;;;;;;;;;;;;;;17.79;33.32;100583.75;4419133;32;20005;-53
2021/03/22 10:23:28;;;;;;;;;;;;;;;17.88;33.15;100588.38;4419514;32;20215;-51
2021/03/22 10:25:54;;;;;;;;;;;;;;;17.89;33.10;100596.34;4420081;32;19951;-51
2021/03/22 10:28:20;;;;;;;;;;;;;;;17.78;33.25;100596.06;4418470;32;19954;-53
2021/03/22 10:30:46;;;;;;;;;;;;;;;17.78;33.32;100597.78;4419016;32;19965;-53
2021/03/22 10:33:12;;;;;;;;;;;;;;;17.59;33.72;100592.00;4416247;32;20012;-53
2021/03/22 10:35:37;;;;;;;;;;;;;;;17.64;33.62;100592.13;4418169;32;20566;-54
2021/03/22 10:38:03;;;;;;;;;;;;;;;17.69;33.51;100591.41;4417633;32;19965;-52
2021/03/22 10:40:29;;;;;;;;;;;;;;;17.73;33.44;100594.16;4418127;32;20037;-50
2021/03/22 10:42:55;;;;;;;;;;;;;;;17.82;33.42;100597.00;4418114;32;20024;-49
2021/03/22 10:45:21;;;;;;;;;;;;;;;17.85;33.32;100597.13;4414367;32;19966;-51
2021/03/22 10:47:47;;;;;;;;;;;;;;;17.82;33.35;100594.38;4396657;32;19958;-51
2021/03/22 10:50:13;;;;;;;;;;;;;;;17.76;33.51;100596.87;4396286;32;19959;-52
2021/03/22 10:52:39;;;;;;;;;;;;;;;17.82;33.49;100600.56;4399945;32;19942;-53
2021/03/22 10:55:05;;;;;;;;;;;;;;;17.93;33.34;100592.03;4388725;32;19954;-52
2021/03/22 10:57:31;;;;;;;;;;;;;;;17.86;33.30;100585.72;4395368;32;19970;-51
2021/03/22 10:59:57;;;;;;;;;;;;;;;17.89;33.39;100591.06;4403844;32;19962;-52
2021/03/22 11:02:23;;;;;;;;;;;;;;;17.83;33.46;100598.78;4397667;32;20809;-53
2021/03/22 11:04:49;;;;;;;;;;;;;;;17.77;33.51;100599.53;4382714;32;19954;-51
2021/03/22 11:07:15;;;;;;;;;;;;;;;17.84;33.35;100603.19;4407201;32;19953;-53
2021/03/22 11:09:41;;;;;;;;;;;;;;;17.92;33.35;100612.22;4419396;32;19954;-50
2021/03/22 11:12:07;;;;;;;;;;;;;;;17.94;33.23;100618.41;4417903;32;19968;-54
2021/03/22 11:14:33;;;;;;;;;;;;;;;17.89;33.31;100617.41;4417795;32;19954;-52
2021/03/22 11:16:59;;;;;;;;;;;;;;;17.83;33.45;100610.22;4417466;32;20003;-53
2021/03/22 11:19:25;;;;;;;;;;;;;;;17.90;33.41;100613.00;4417930;32;19965;-55
2021/03/22 11:21:51;;;;;;;;;;;;;;;17.87;33.50;100608.59;4419477;32;19970;-55
2021/03/22 11:24:16;;;;;;;;;;;;;;;17.77;33.90;100607.41;4416234;32;19958;-55
2021/03/22 11:26:42;;;;;;;;;;;;;;;17.86;33.77;100606.81;4416828;32;19955;-52
2021/03/22 11:29:08;;;;;;;;;;;;;;;17.81;33.72;100608.41;4413427;32;19962;-53
2021/03/22 11:31:34;;;;;;;;;;;;;;;18.00;33.51;100603.63;4416173;32;19953;-50
2021/03/22 11:34:00;;;;;;;;;;;;;;;18.12;33.29;100607.50;4416127;32;19954;-54
2021/03/22 11:36:26;;;;;;;;;;;;;;;18.11;33.23;100602.19;4416710;32;20350;-53
2021/03/22 11:38:52;;;;;;;;;;;;;;;18.19;33.17;100608.53;4416832;32;20004;-52
2021/03/22 11:41:18;;;;;;;;;;;;;;;18.20;33.09;100597.13;4416568;32;20272;-53
2021/03/22 11:43:43;;;;;;;;;;;;;;;18.20;33.09;100607.69;4417126;32;19950;-53
2021/03/22 11:46:09;;;;;;;;;;;;;;;18.13;33.16;100600.47;4417753;32;19951;-53
2021/03/22 11:48:35;;;;;;;;;;;;;;;18.03;33.29;100598.47;4416344;32;19958;-53
2021/03/22 11:51:01;;;;;;;;;;;;;;;18.03;33.38;100595.81;4416673;32;19960;-53
2021/03/22 11:53:29;;;;;;;;;;;;;;;17.97;33.42;100592.16;4417736;32;20405;-53
2021/03/22 11:55:55;;;;;;;;;;;;;;;17.94;33.54;100594.69;4417779;32;20008;-53
2021/03/22 11:58:20;;;;;;;;;;;;;;;18.06;33.45;100593.25;4415001;32;19969;-50
2021/03/22 12:00:46;;;;;;;;;;;;;;;18.15;33.17;100593.50;4405956;32;19969;-53
2021/03/22 12:03:12;;;;;;;;;;;;;;;18.03;33.43;100594.09;4400573;32;19989;-49
2021/03/22 12:05:38;;;;;;;;;;;;;;;17.95;33.63;100595.59;4393893;32;20365;-53
2021/03/22 12:08:07;;;;;;;;;;;;;;;18.05;33.41;100591.47;4412971;32;19985;-54
2021/03/22 12:10:33;;;;;;;;;;;;;;;17.98;33.44;100596.56;4417132;32;19959;-54
2021/03/22 12:12:59;;;;;;;;;;;;;;;17.94;33.44;100586.78;4416050;32;20875;-54
2021/03/22 12:15:25;;;;;;;;;;;;;;;17.87;33.50;100586.59;4416530;32;19954;-53
2021/03/22 12:17:51;;;;;;;;;;;;;;;17.83;33.51;100591.78;4416775;32;19954;-52
2021/03/22 12:20:17;;;;;;;;;;;;;;;17.90;33.47;100587.56;4415794;32;19953;-53
2021/03/22 12:22:43;;;;;;;;;;;;;;;17.91;33.39;100594.62;4416479;32;19966;-53
2021/03/22 12:25:08;;;;;;;;;;;;;;;17.92;33.35;100585.87;4416727;32;19958;-50
2021/03/22 12:27:34;;;;;;;;;;;;;;;17.95;33.29;100585.94;4416099;32;19954;-53